createdAt,value
2023-07-24T00:01:46.601Z,22.61
2023-07-24T00:04:49.494Z,22.63
2023-07-24T00:07:51.824Z,22.61
2023-07-24T00:10:54.710Z,22.66
2023-07-24T00:13:57.052Z,22.70
2023-07-24T00:16:59.671Z,22.74
2023-07-24T00:20:02.045Z,22.67
2023-07-24T00:23:04.753Z,22.64
2023-07-24T00:26:07.132Z,22.65
2023-07-24T00:29:09.741Z,22.69
2023-07-24T00:32:12.672Z,22.66
2023-07-24T00:35:15.356Z,22.63
2023-07-24T00:38:17.773Z,22.73
2023-07-24T00:41:20.367Z,22.76
2023-07-24T00:44:23.201Z,22.72
2023-07-24T00:47:26.783Z,22.71
2023-07-24T00:50:30.035Z,22.73
2023-07-24T00:53:32.863Z,22.66
2023-07-24T00:56:35.681Z,22.67
2023-07-24T00:59:38.488Z,22.65
2023-07-24T01:02:40.979Z,22.63
2023-07-24T01:05:46.823Z,22.62
2023-07-24T01:08:49.244Z,22.58
2023-07-24T01:11:55.958Z,22.57
2023-07-24T01:15:15.384Z,22.56
2023-07-24T01:18:18.613Z,22.55
2023-07-24T01:21:26.740Z,22.54
2023-07-24T01:24:44.797Z,22.50
2023-07-24T01:27:47.422Z,22.50
2023-07-24T01:30:50.122Z,22.47
2023-07-24T01:33:52.589Z,22.39
2023-07-24T01:36:55.236Z,22.39
2023-07-24T01:39:57.898Z,22.37
2023-07-24T01:43:00.806Z,22.30
2023-07-24T01:46:03.318Z,22.27
2023-07-24T01:49:06.094Z,22.23
2023-07-24T01:52:08.446Z,22.25
2023-07-24T01:55:11.047Z,22.11
2023-07-24T01:58:13.334Z,22.09
2023-07-24T02:01:16.040Z,22.01
2023-07-24T02:04:18.807Z,22.00
2023-07-24T02:07:23.063Z,21.92
2023-07-24T02:10:25.643Z,21.83
2023-07-24T02:13:27.963Z,21.79
2023-07-24T02:16:30.795Z,21.79
2023-07-24T02:19:33.411Z,21.83
2023-07-24T02:22:36.648Z,21.79
2023-07-24T02:25:41.735Z,21.77
2023-07-24T02:28:44.382Z,21.75
2023-07-24T02:31:46.795Z,21.70
2023-07-24T02:34:52.593Z,21.64
2023-07-24T02:37:54.841Z,21.57
2023-07-24T02:40:58.051Z,21.48
2023-07-24T02:44:00.463Z,21.40
2023-07-24T02:47:03.201Z,21.35
2023-07-24T02:50:05.680Z,21.34
2023-07-24T02:53:08.527Z,21.32
2023-07-24T02:56:10.874Z,21.23
2023-07-24T02:59:13.557Z,21.23
2023-07-24T03:02:15.908Z,21.21
2023-07-24T03:05:18.678Z,21.28
2023-07-24T03:08:21.004Z,21.35
2023-07-24T03:11:23.642Z,21.37
2023-07-24T03:14:27.152Z,21.35
2023-07-24T03:17:29.875Z,21.31
2023-07-24T03:20:32.285Z,21.23
2023-07-24T03:23:34.872Z,21.17
2023-07-24T03:26:37.493Z,21.12
2023-07-24T03:29:42.052Z,21.13
2023-07-24T03:32:44.481Z,21.08
2023-07-24T03:35:47.096Z,21.03
2023-07-24T03:38:49.508Z,20.95
2023-07-24T03:41:52.104Z,20.91
2023-07-24T03:44:54.830Z,20.89
2023-07-24T03:47:57.509Z,20.85
2023-07-24T03:51:03.322Z,20.84
2023-07-24T03:54:05.988Z,20.85
2023-07-24T03:57:08.393Z,20.85
2023-07-24T04:00:11.362Z,20.86
2023-07-24T04:03:15.058Z,20.87
2023-07-24T04:06:17.737Z,20.98
2023-07-24T04:09:20.031Z,21.02
2023-07-24T04:12:24.794Z,21.01
2023-07-24T04:15:27.055Z,21.06
2023-07-24T04:18:29.646Z,21.10
2023-07-24T04:21:32.053Z,21.12
2023-07-24T04:24:34.769Z,21.18
2023-07-24T04:27:37.100Z,21.22
2023-07-24T04:30:39.686Z,21.23
2023-07-24T04:33:42.030Z,21.28
2023-07-24T04:36:44.624Z,21.34
2023-07-24T04:39:47.080Z,21.41
2023-07-24T04:42:49.768Z,21.47
2023-07-24T04:45:52.076Z,21.58
2023-07-24T04:48:54.763Z,21.64
2023-07-24T04:51:57.243Z,21.72
2023-07-24T04:54:59.855Z,21.81
2023-07-24T04:58:02.153Z,21.95
2023-07-24T05:01:05.367Z,22.00
2023-07-24T05:04:07.756Z,22.16
2023-07-24T05:07:10.307Z,22.25
2023-07-24T05:10:14.474Z,22.40
2023-07-24T05:13:17.274Z,22.29
2023-07-24T05:16:19.650Z,22.52
2023-07-24T05:19:22.306Z,22.70
2023-07-24T05:22:24.622Z,22.79
2023-07-24T05:25:27.238Z,23.01
2023-07-24T05:28:30.210Z,23.06
2023-07-24T05:31:34.774Z,23.17
2023-07-24T05:34:37.204Z,23.21
2023-07-24T05:37:39.815Z,23.17
2023-07-24T05:40:42.255Z,23.35
2023-07-24T05:43:44.858Z,23.51
2023-07-24T05:46:47.153Z,23.62
2023-07-24T05:49:49.821Z,23.77
2023-07-24T05:52:52.573Z,23.97
2023-07-24T05:56:01.443Z,24.16
2023-07-24T05:59:03.812Z,24.33
2023-07-24T06:02:06.501Z,24.36
2023-07-24T06:05:09.274Z,24.90
2023-07-24T06:08:12.757Z,25.19
2023-07-24T06:11:15.448Z,24.99
2023-07-24T06:14:17.898Z,25.00
2023-07-24T06:17:20.563Z,24.95
2023-07-24T06:20:22.872Z,25.03
2023-07-24T06:23:25.493Z,25.17
2023-07-24T06:26:28.198Z,25.25
2023-07-24T06:29:31.098Z,25.24
2023-07-24T06:32:33.608Z,25.49
2023-07-24T06:35:36.757Z,25.55
2023-07-24T06:38:39.116Z,25.87
2023-07-24T06:41:41.890Z,25.73
2023-07-24T06:44:44.267Z,25.98
2023-07-24T06:47:46.856Z,25.95
2023-07-24T06:50:49.216Z,26.14
2023-07-24T06:53:51.926Z,26.50
2023-07-24T06:56:54.434Z,28.59
2023-07-24T06:59:57.004Z,32.89
2023-07-24T07:03:02.089Z,36.42
2023-07-24T07:06:04.847Z,38.68
2023-07-24T07:09:07.606Z,40.54
2023-07-24T07:12:10.246Z,40.48
2023-07-24T07:15:12.554Z,41.99
2023-07-24T07:18:16.287Z,43.23
2023-07-24T07:21:19.311Z,43.06
2023-07-24T07:24:22.010Z,42.54
2023-07-24T07:27:24.362Z,43.85
2023-07-24T07:30:27.001Z,43.86
2023-07-24T07:33:30.558Z,43.83
2023-07-24T07:36:33.301Z,43.16
2023-07-24T07:39:35.765Z,43.91
2023-07-24T07:42:39.771Z,44.32
2023-07-24T07:45:42.621Z,44.24
2023-07-24T07:48:47.311Z,45.05
2023-07-24T07:51:49.628Z,45.92
2023-07-24T07:54:52.316Z,45.81
2023-07-24T07:57:54.725Z,44.50
2023-07-24T08:00:57.371Z,45.60
2023-07-24T08:04:00.381Z,45.68
2023-07-24T08:07:02.842Z,45.24
2023-07-24T08:10:05.657Z,45.48
2023-07-24T08:13:08.853Z,45.26
2023-07-24T08:16:19.605Z,44.99
2023-07-24T08:19:22.471Z,45.38
2023-07-24T08:22:25.142Z,44.47
2023-07-24T08:25:27.431Z,44.29
2023-07-24T08:28:30.165Z,44.04
2023-07-24T08:31:32.620Z,44.32
2023-07-24T08:34:35.427Z,43.87
2023-07-24T08:37:37.790Z,43.33
2023-07-24T08:40:40.505Z,44.12
2023-07-24T08:43:43.849Z,44.03
2023-07-24T08:46:47.181Z,44.65
2023-07-24T08:49:50.114Z,44.36
2023-07-24T08:52:52.794Z,44.02
2023-07-24T08:55:55.884Z,44.05
2023-07-24T08:58:58.629Z,43.97
2023-07-24T09:02:01.089Z,44.64
2023-07-24T09:05:04.903Z,45.23
2023-07-24T09:08:07.556Z,46.18
2023-07-24T09:11:10.905Z,45.78
2023-07-24T09:14:21.075Z,44.32
2023-07-24T09:17:23.737Z,44.91
2023-07-24T09:23:33.649Z,43.92
2023-07-24T09:26:36.008Z,45.40
2023-07-24T09:29:41.267Z,43.27
2023-07-24T09:32:43.769Z,40.23
2023-07-24T09:35:46.398Z,39.10
2023-07-24T09:38:48.656Z,37.72
2023-07-24T09:41:51.465Z,36.39
2023-07-24T09:44:53.858Z,36.43
2023-07-24T09:48:05.098Z,36.58
2023-07-24T09:51:12.984Z,36.15
2023-07-24T09:54:27.543Z,36.39
2023-07-24T09:57:30.615Z,36.69
2023-07-24T10:00:33.731Z,36.59
2023-07-24T10:03:37.208Z,36.53
2023-07-24T10:06:39.673Z,36.42
2023-07-24T10:09:43.944Z,36.26
2023-07-24T10:12:46.344Z,36.18
2023-07-24T10:15:49.745Z,36.57
2023-07-24T10:18:52.083Z,36.55
2023-07-24T10:21:54.776Z,36.18
2023-07-24T10:24:57.214Z,36.52
2023-07-24T10:28:08.765Z,36.61
2023-07-24T10:31:24.371Z,36.22
2023-07-24T10:34:36.819Z,36.61
2023-07-24T10:37:39.130Z,36.33
2023-07-24T10:40:42.312Z,36.74
2023-07-24T10:43:48.269Z,36.63
2023-07-24T10:46:52.394Z,36.22
2023-07-24T10:49:54.821Z,36.63
2023-07-24T10:52:58.672Z,36.75
2023-07-24T10:56:01.341Z,36.67
2023-07-24T10:59:05.273Z,36.52
2023-07-24T11:02:08.453Z,36.16
2023-07-24T11:05:13.239Z,36.16
2023-07-24T11:08:19.604Z,35.82
2023-07-24T11:11:22.294Z,36.07
2023-07-24T11:14:25.508Z,35.70
2023-07-24T11:17:36.114Z,36.05
2023-07-24T11:20:49.144Z,36.28
2023-07-24T11:23:53.238Z,36.33
2023-07-24T11:26:55.657Z,35.58
2023-07-24T11:29:58.242Z,35.42
2023-07-24T11:33:02.250Z,35.15
2023-07-24T11:36:05.268Z,35.87
2023-07-24T11:39:07.817Z,36.59
2023-07-24T11:42:10.613Z,37.42
2023-07-24T11:45:13.032Z,37.70
2023-07-24T11:48:15.938Z,37.18
2023-07-24T11:51:18.317Z,37.31
2023-07-24T11:54:20.964Z,37.24
2023-07-24T11:57:23.296Z,36.69
2023-07-24T12:00:26.134Z,36.70
2023-07-24T12:03:29.829Z,36.61
2023-07-24T12:06:33.321Z,36.36
2023-07-24T12:12:47.266Z,35.83
2023-07-24T12:15:50.434Z,36.16
2023-07-24T12:18:52.843Z,36.29
2023-07-24T12:21:55.648Z,36.32
2023-07-24T12:24:58.086Z,35.91
2023-07-24T12:28:00.784Z,35.95
2023-07-24T12:31:03.700Z,35.78
2023-07-24T12:34:06.585Z,35.80
2023-07-24T12:37:08.958Z,35.69
2023-07-24T12:40:11.707Z,35.35
2023-07-24T12:43:15.905Z,35.24
2023-07-24T12:46:18.654Z,35.37
2023-07-24T12:49:21.273Z,35.71
2023-07-24T12:52:23.946Z,35.70
2023-07-24T12:55:28.105Z,35.93
2023-07-24T12:58:30.902Z,35.89
2023-07-24T13:01:33.661Z,36.05
2023-07-24T13:04:36.634Z,35.70
2023-07-24T13:07:39.247Z,35.44
2023-07-24T13:10:41.859Z,35.76
2023-07-24T13:13:44.688Z,35.05
2023-07-24T13:16:47.553Z,35.36
2023-07-24T13:19:49.947Z,35.19
2023-07-24T13:22:52.554Z,35.03
2023-07-24T13:25:55.043Z,35.19
2023-07-24T13:28:57.626Z,35.27
2023-07-24T13:32:00.005Z,35.27
2023-07-24T13:35:02.966Z,34.92
2023-07-24T13:38:05.348Z,35.04
2023-07-24T13:41:09.376Z,35.02
2023-07-24T13:44:11.792Z,34.98
2023-07-24T13:47:14.596Z,34.80
2023-07-24T13:50:16.890Z,34.78
2023-07-24T13:53:19.398Z,34.70
2023-07-24T13:56:24.249Z,34.70
2023-07-24T13:59:26.885Z,34.59
2023-07-24T14:02:29.366Z,34.81
2023-07-24T14:05:32.309Z,34.50
2023-07-24T14:08:34.737Z,34.05
2023-07-24T14:11:37.351Z,33.88
2023-07-24T14:14:39.721Z,33.98
2023-07-24T14:17:42.385Z,34.04
2023-07-24T14:20:44.839Z,33.97
2023-07-24T14:23:47.492Z,33.86
2023-07-24T14:26:49.926Z,33.83
2023-07-24T14:29:52.632Z,33.75
2023-07-24T14:32:55.004Z,33.72
2023-07-24T14:35:57.636Z,33.75
2023-07-24T14:39:00.510Z,34.01
2023-07-24T14:42:03.162Z,34.08
2023-07-24T14:45:05.813Z,34.05
2023-07-24T14:48:13.829Z,34.01
2023-07-24T14:51:16.391Z,33.73
2023-07-24T14:54:19.136Z,33.80
2023-07-24T14:57:25.657Z,33.75
2023-07-24T15:00:30.448Z,33.85
2023-07-24T15:03:32.805Z,33.66
2023-07-24T15:06:53.963Z,33.79
2023-07-24T15:09:56.265Z,33.54
2023-07-24T15:12:58.899Z,33.69
2023-07-24T15:16:01.374Z,33.56
2023-07-24T15:19:04.038Z,33.37
2023-07-24T15:22:06.650Z,33.03
2023-07-24T15:25:10.703Z,32.97
2023-07-24T15:28:13.562Z,32.92
2023-07-24T15:31:16.448Z,33.26
2023-07-24T15:34:18.925Z,33.68
2023-07-24T15:37:21.846Z,33.64
2023-07-24T15:40:24.218Z,33.39
2023-07-24T15:43:26.983Z,33.17
2023-07-24T15:46:32.572Z,33.06
2023-07-24T15:49:35.451Z,32.80
2023-07-24T15:52:37.750Z,32.54
2023-07-24T15:55:40.350Z,32.35
2023-07-24T15:58:44.035Z,32.08
2023-07-24T16:01:46.743Z,31.99
2023-07-24T16:04:51.335Z,31.94
2023-07-24T16:07:53.781Z,32.21
2023-07-24T16:10:56.641Z,32.44
2023-07-24T16:13:58.929Z,32.50
2023-07-24T16:17:01.777Z,32.47
2023-07-24T16:20:05.065Z,32.37
2023-07-24T16:23:08.103Z,32.34
2023-07-24T16:26:10.454Z,32.11
2023-07-24T16:29:13.001Z,32.07
2023-07-24T16:32:15.380Z,31.92
2023-07-24T16:35:18.025Z,31.92
2023-07-24T16:38:20.423Z,31.82
2023-07-24T16:41:23.261Z,31.82
2023-07-24T16:44:33.220Z,31.85
2023-07-24T16:47:39.774Z,31.70
2023-07-24T16:50:42.255Z,31.69
2023-07-24T16:53:44.891Z,31.46
2023-07-24T16:56:47.212Z,31.35
2023-07-24T16:59:49.812Z,31.24
2023-07-24T17:02:52.371Z,31.27
2023-07-24T17:05:55.217Z,31.16
2023-07-24T17:08:57.550Z,31.10
2023-07-24T17:12:01.024Z,31.07
2023-07-24T17:15:04.857Z,31.01
2023-07-24T17:18:07.592Z,30.86
2023-07-24T17:21:09.908Z,30.78
2023-07-24T17:24:12.567Z,30.63
2023-07-24T17:27:15.077Z,30.60
2023-07-24T17:30:18.083Z,30.50
2023-07-24T17:33:20.437Z,30.43
2023-07-24T17:36:23.078Z,30.38
2023-07-24T17:39:25.378Z,30.34
2023-07-24T17:42:27.958Z,30.32
2023-07-24T17:45:30.278Z,30.24
2023-07-24T17:48:32.890Z,30.18
2023-07-24T17:51:35.450Z,30.12
2023-07-24T17:54:40.508Z,30.01
2023-07-24T17:57:42.819Z,29.94
2023-07-24T18:00:46.981Z,29.85
2023-07-24T18:03:49.751Z,29.83
2023-07-24T18:06:52.293Z,29.75
2023-07-24T18:09:54.989Z,29.71
2023-07-24T18:12:57.763Z,29.71
2023-07-24T18:16:00.310Z,29.63
2023-07-24T18:19:04.881Z,29.57
2023-07-24T18:22:07.538Z,29.52
2023-07-24T18:25:10.686Z,29.47
2023-07-24T18:28:13.456Z,29.43
2023-07-24T18:31:15.840Z,29.28
2023-07-24T18:34:20.456Z,29.27
2023-07-24T18:37:22.841Z,29.17
2023-07-24T18:40:25.662Z,29.09
2023-07-24T18:43:28.354Z,29.02
2023-07-24T18:46:30.899Z,29.08
2023-07-24T18:49:33.518Z,29.02
2023-07-24T18:52:36.259Z,29.05
2023-07-24T18:55:39.562Z,29.14
2023-07-24T18:58:44.712Z,29.05
2023-07-24T19:01:48.160Z,28.93
2023-07-24T19:04:50.776Z,28.90
2023-07-24T19:07:53.077Z,28.85
2023-07-24T19:10:55.678Z,28.73
2023-07-24T19:13:58.066Z,28.65
2023-07-24T19:17:00.728Z,28.55
2023-07-24T19:20:03.074Z,28.51
2023-07-24T19:23:05.709Z,28.50
2023-07-24T19:26:09.722Z,28.46
2023-07-24T19:29:12.328Z,28.39
2023-07-24T19:32:14.639Z,28.38
2023-07-24T19:35:19.223Z,28.26
2023-07-24T19:38:21.547Z,28.22
2023-07-24T19:41:24.697Z,28.17
2023-07-24T19:44:27.100Z,28.21
2023-07-24T19:47:29.897Z,28.16
2023-07-24T19:50:32.261Z,28.10
2023-07-24T19:53:34.977Z,28.09
2023-07-24T19:56:37.301Z,28.05
2023-07-24T19:59:39.943Z,28.04
2023-07-24T20:02:43.230Z,28.08
2023-07-24T20:05:54.960Z,27.98
2023-07-24T20:08:57.262Z,28.04
2023-07-24T20:11:59.995Z,27.95
2023-07-24T20:15:02.681Z,27.96
2023-07-24T20:18:06.361Z,27.83
2023-07-24T20:21:09.033Z,27.84
2023-07-24T20:24:13.087Z,27.70
2023-07-24T20:27:15.701Z,27.57
2023-07-24T20:30:18.274Z,27.56
2023-07-24T20:33:20.922Z,27.54
2023-07-24T20:36:23.619Z,27.56
2023-07-24T20:39:26.940Z,27.50
2023-07-24T20:42:30.775Z,27.46
2023-07-24T20:45:33.130Z,27.32
2023-07-24T20:48:35.758Z,27.22
2023-07-24T20:51:38.098Z,27.13
2023-07-24T20:54:40.738Z,27.06
2023-07-24T20:57:43.019Z,27.10
2023-07-24T21:00:45.666Z,27.16
2023-07-24T21:03:48.006Z,27.07
2023-07-24T21:06:51.613Z,26.88
2023-07-24T21:09:54.031Z,26.81
2023-07-24T21:12:56.970Z,26.76
2023-07-24T21:15:59.593Z,26.70
2023-07-24T21:19:03.144Z,26.79
2023-07-24T21:22:05.644Z,26.76
2023-07-24T21:25:08.587Z,26.76
2023-07-24T21:28:12.359Z,26.67
2023-07-24T21:31:15.607Z,26.54
2023-07-24T21:34:18.791Z,26.53
2023-07-24T21:37:21.435Z,26.45
2023-07-24T21:40:23.760Z,26.27
2023-07-24T21:43:26.375Z,26.13
2023-07-24T21:46:28.836Z,25.98
2023-07-24T21:49:32.657Z,25.78
2023-07-24T21:52:36.581Z,25.67
2023-07-24T21:55:40.265Z,25.60
2023-07-24T21:58:42.664Z,25.46
2023-07-24T22:01:45.267Z,25.56
2023-07-24T22:04:47.928Z,25.56
2023-07-24T22:07:50.478Z,25.52
2023-07-24T22:10:53.217Z,25.41
2023-07-24T22:13:55.500Z,25.43
2023-07-24T22:16:58.296Z,25.53
2023-07-24T22:20:01.727Z,25.71
2023-07-24T22:23:04.372Z,25.81
2023-07-24T22:26:06.684Z,25.94
2023-07-24T22:29:09.426Z,25.88
2023-07-24T22:32:11.771Z,25.91
2023-07-24T22:35:14.689Z,26.01
2023-07-24T22:38:16.944Z,26.05
2023-07-24T22:41:19.654Z,26.06
2023-07-24T22:44:22.054Z,25.99
2023-07-24T22:47:25.005Z,26.02
2023-07-24T22:50:27.485Z,25.97
2023-07-24T22:53:30.094Z,25.87
2023-07-24T22:56:32.433Z,25.84
2023-07-24T22:59:35.331Z,25.78
2023-07-24T23:02:37.788Z,25.79
2023-07-24T23:05:40.480Z,25.77
2023-07-24T23:08:42.853Z,25.61
2023-07-24T23:11:45.501Z,25.50
2023-07-24T23:14:47.802Z,25.51
2023-07-24T23:17:50.568Z,25.46
2023-07-24T23:20:52.957Z,25.31
2023-07-24T23:23:55.660Z,25.33
2023-07-24T23:26:57.896Z,25.19
2023-07-24T23:30:00.649Z,25.02
2023-07-24T23:33:03.025Z,24.96
2023-07-24T23:36:08.523Z,24.90
2023-07-24T23:39:10.890Z,24.93
2023-07-24T23:42:13.515Z,25.09
2023-07-24T23:45:16.008Z,25.09
2023-07-24T23:48:18.720Z,25.15
2023-07-24T23:51:21.468Z,25.24
2023-07-24T23:54:24.048Z,25.28
2023-07-24T23:57:32.182Z,25.27
